Array
(
    [0] => p
    [1] => METAR
)
- বাংলা English

**Mild to moderate cold wave is sweeping over  the regions of  Moulvibazar,Rajshahi, Pabna, Naogaon, Panchagarh, Nilphamary,Kurigram and Chuadanga .** 

METAR

VGHS 160700Z 30007KT 4000 HZ NSC 24/10 Q1016 NOSIG=